Time;durP1;ratioP1;P1;durP2;ratioP2;P2;SDS_P1;SDS_P2;PMS_P1;PMS_P2;Temp;Humidity;BMP_temperature;BMP_pressure;BME280_temperature;BME280_humidity;BME280_pressure;Samples;Min_cycle;Max_cycle;Signal;HPM_P1;HPM_P2
2022/10/15 00:00:30;;;;;;;53.40;31.55;;;12.40;99.90;;;;;;5048489;28;20043;-68
2022/10/15 00:02:56;;;;;;;49.03;29.88;;;12.40;99.90;;;;;;5047972;28;20167;-68
2022/10/15 00:05:22;;;;;;;51.95;31.40;;;12.50;99.90;;;;;;5051966;28;20041;-68
2022/10/15 00:07:48;;;;;;;51.83;30.92;;;12.30;99.90;;;;;;5065198;28;20132;-68
2022/10/15 00:10:14;;;;;;;49.55;32.50;;;12.40;99.90;;;;;;5049920;28;20174;-68
2022/10/15 00:12:41;;;;;;;52.50;31.58;;;12.40;99.90;;;;;;5050352;28;20049;-68
2022/10/15 00:15:07;;;;;;;52.58;31.30;;;12.40;99.90;;;;;;5050172;28;20043;-68
2022/10/15 00:17:34;;;;;;;54.00;32.42;;;12.40;99.90;;;;;;5052658;28;20064;-68
2022/10/15 00:20:00;;;;;;;55.45;32.75;;;12.40;99.90;;;;;;5068999;28;20048;-68
2022/10/15 00:22:26;;;;;;;50.13;30.40;;;12.40;99.90;;;;;;5067393;28;20063;-67
2022/10/15 00:24:51;;;;;;;54.10;32.53;;;12.40;99.90;;;;;;5065359;28;20041;-67
2022/10/15 00:27:17;;;;;;;56.97;34.35;;;12.30;99.90;;;;;;5068251;28;20040;-67
2022/10/15 00:29:43;;;;;;;53.97;34.40;;;12.40;99.90;;;;;;5059208;28;20041;-67
2022/10/15 00:32:08;;;;;;;59.17;33.58;;;12.30;99.90;;;;;;5069331;28;20143;-67
2022/10/15 00:34:34;;;;;;;56.55;33.47;;;12.40;99.90;;;;;;5068391;28;20060;-67
2022/10/15 00:37:00;;;;;;;55.22;34.80;;;12.30;99.90;;;;;;5049367;28;20049;-67
2022/10/15 00:39:26;;;;;;;56.35;36.05;;;12.20;99.90;;;;;;5067880;28;20048;-68
2022/10/15 00:41:51;;;;;;;64.25;36.33;;;12.30;99.90;;;;;;5068113;28;20041;-67
2022/10/15 00:44:20;;;;;;;57.08;36.00;;;12.20;99.90;;;;;;5035673;28;20032;-67
2022/10/15 00:46:48;;;;;;;57.22;35.58;;;12.20;99.90;;;;;;5066746;28;20045;-67
2022/10/15 00:49:14;;;;;;;62.00;37.70;;;12.30;99.90;;;;;;5034637;28;20138;-67
2022/10/15 00:51:45;;;;;;;66.25;40.30;;;12.30;99.90;;;;;;5073072;28;20049;-68
2022/10/15 00:54:13;;;;;;;62.20;38.35;;;12.30;99.90;;;;;;5065711;28;20036;-67
2022/10/15 00:56:42;;;;;;;63.42;37.53;;;12.30;99.90;;;;;;5069590;28;20113;-67
2022/10/15 00:59:08;;;;;;;69.75;40.30;;;12.20;99.90;;;;;;5072255;28;20520;-67
2022/10/15 01:01:34;;;;;;;67.47;38.92;;;12.20;99.90;;;;;;5072151;28;20056;-67
2022/10/15 01:04:02;;;;;;;78.85;42.47;;;12.30;99.90;;;;;;5073458;28;20047;-67
2022/10/15 01:06:29;;;;;;;72.20;42.58;;;12.20;99.90;;;;;;5065997;28;20087;-67
2022/10/15 01:08:55;;;;;;;78.35;43.55;;;12.20;99.90;;;;;;5064879;28;20049;-67
2022/10/15 01:11:39;;;;;;;77.78;43.58;;;12.20;99.90;;;;;;5070110;28;20029;-67
2022/10/15 01:14:29;;;;;;;76.75;42.03;;;12.20;99.90;;;;;;5062838;28;20049;-67
2022/10/15 01:17:13;;;;;;;71.28;41.45;;;12.30;99.90;;;;;;5064523;28;20059;-67
2022/10/15 01:20:01;;;;;;;74.80;41.53;;;12.20;99.90;;;;;;5049232;28;20075;-68
2022/10/15 01:22:41;;;;;;;78.05;41.72;;;12.20;99.90;;;;;;5045945;28;20048;-67
2022/10/15 01:25:23;;;;;;;72.40;40.50;;;12.10;99.90;;;;;;5046300;28;20040;-68
2022/10/15 01:27:56;;;;;;;77.07;43.47;;;12.30;99.90;;;;;;5049778;28;20045;-68
2022/10/15 01:30:43;;;;;;;70.30;38.67;;;12.20;99.90;;;;;;5049454;28;20076;-67
2022/10/15 01:33:32;;;;;;;76.22;42.28;;;12.20;99.90;;;;;;5048056;28;20091;-68
2022/10/15 01:36:04;;;;;;;74.90;41.80;;;12.20;99.90;;;;;;5067172;28;20409;-67
2022/10/15 01:38:44;;;;;;;72.57;40.35;;;12.20;99.90;;;;;;5048227;28;20057;-67
2022/10/15 01:41:15;;;;;;;;;;;12.20;99.90;;;;;;5047949;28;20043;-67
2022/10/15 01:43:47;;;;;;;;;;;12.20;99.90;;;;;;5063124;28;20010;-68
2022/10/15 01:46:25;;;;;;;68.80;37.83;;;12.20;99.90;;;;;;5067938;28;19943;-68
2022/10/15 01:48:54;;;;;;;66.32;41.05;;;12.20;99.90;;;;;;5046055;28;20068;-68
2022/10/15 01:51:22;;;;;;;62.75;37.70;;;12.10;99.90;;;;;;5064787;28;20047;-67
2022/10/15 01:53:49;;;;;;;64.40;38.92;;;12.10;99.90;;;;;;5046622;28;20045;-67
2022/10/15 01:56:20;;;;;;;64.65;39.03;;;12.10;99.90;;;;;;5067630;28;20072;-68
2022/10/15 01:58:48;;;;;;;65.00;38.20;;;12.10;99.90;;;;;;5067069;28;20448;-67
2022/10/15 02:01:15;;;;;;;61.22;38.05;;;12.20;99.90;;;;;;5064206;28;20075;-67
2022/10/15 02:03:49;;;;;;;60.33;37.70;;;12.10;99.90;;;;;;5064721;28;20056;-67
2022/10/15 02:06:35;;;;;;;64.60;38.08;;;12.20;99.90;;;;;;5064896;28;20075;-68
2022/10/15 02:09:15;;;;;;;65.40;38.40;;;12.20;99.90;;;;;;5048386;28;20112;-67
2022/10/15 02:11:55;;;;;;;;;;;12.30;99.90;;;;;;5051390;28;20522;-67
2022/10/15 02:14:33;;;;;;;64.00;37.45;;;12.20;99.90;;;;;;5063233;28;19986;-67
2022/10/15 02:17:10;;;;;;;60.65;36.95;;;12.10;99.90;;;;;;5050932;28;20052;-68
2022/10/15 02:19:45;;;;;;;60.53;37.40;;;12.20;99.90;;;;;;5047815;28;20057;-67
2022/10/15 02:22:16;;;;;;;62.85;37.60;;;12.20;99.90;;;;;;5051252;28;20464;-67
2022/10/15 02:25:04;;;;;;;60.63;37.10;;;12.10;99.90;;;;;;5049971;28;20087;-67
2022/10/15 02:27:32;;;;;;;62.55;37.25;;;12.20;99.90;;;;;;5034549;28;20508;-67
2022/10/15 02:30:00;;;;;;;58.97;35.90;;;12.10;99.90;;;;;;5067390;28;20075;-67
2022/10/15 02:32:28;;;;;;;66.95;38.58;;;12.20;99.90;;;;;;5051278;28;20044;-67
2022/10/15 02:34:54;;;;;;;60.85;36.47;;;12.10;99.90;;;;;;5054017;28;20061;-67
2022/10/15 02:37:24;;;;;;;63.58;38.22;;;12.20;99.90;;;;;;5065420;28;20159;-67
2022/10/15 02:39:50;;;;;;;61.85;36.53;;;12.20;99.90;;;;;;5054097;28;20049;-68
2022/10/15 02:42:17;;;;;;;60.47;36.92;;;12.20;99.90;;;;;;5054981;28;20041;-68
2022/10/15 02:44:43;;;;;;;62.80;36.10;;;12.20;99.90;;;;;;5049302;28;20055;-68
2022/10/15 02:47:10;;;;;;;55.83;34.80;;;12.20;99.90;;;;;;5068829;28;20045;-68
2022/10/15 02:49:36;;;;;;;61.20;36.25;;;12.20;99.90;;;;;;5051261;28;20105;-67
2022/10/15 02:52:02;;;;;;;58.65;34.63;;;12.10;99.90;;;;;;5050406;28;20413;-67
2022/10/15 02:54:28;;;;;;;58.33;35.83;;;12.20;99.90;;;;;;5071174;28;20045;-68
2022/10/15 02:56:53;;;;;;;56.42;33.58;;;12.30;99.90;;;;;;5054325;28;20049;-68
2022/10/15 02:59:19;;;;;;;59.65;34.65;;;12.30;99.90;;;;;;5052684;28;20075;-67
2022/10/15 03:01:45;;;;;;;62.45;35.30;;;12.20;99.90;;;;;;5068037;28;20045;-67
2022/10/15 03:04:11;;;;;;;55.33;32.40;;;12.20;99.90;;;;;;5054232;28;20059;-67
2022/10/15 03:06:36;;;;;;;51.70;33.28;;;12.20;99.90;;;;;;5048593;28;20060;-67
2022/10/15 03:09:03;;;;;;;59.83;34.50;;;12.20;99.90;;;;;;5066389;28;20037;-67
2022/10/15 03:11:28;;;;;;;53.33;31.63;;;12.10;99.90;;;;;;5053347;28;20045;-67
2022/10/15 03:13:54;;;;;;;60.47;34.63;;;12.20;99.90;;;;;;5071406;28;20048;-67
2022/10/15 03:16:20;;;;;;;53.78;31.88;;;12.20;99.90;;;;;;5051589;28;20068;-67
2022/10/15 03:18:46;;;;;;;52.65;32.80;;;12.30;99.90;;;;;;5065555;28;20078;-67
2022/10/15 03:21:11;;;;;;;55.17;32.35;;;12.30;99.90;;;;;;5074345;28;20044;-68
2022/10/15 03:23:37;;;;;;;54.95;32.97;;;12.30;99.90;;;;;;5088949;28;20091;-68
2022/10/15 03:26:03;;;;;;;54.25;31.88;;;12.20;99.90;;;;;;5071906;28;20044;-68
2022/10/15 03:28:28;;;;;;;55.35;32.92;;;12.30;99.90;;;;;;5071879;28;20094;-68
2022/10/15 03:30:54;;;;;;;56.47;34.10;;;12.10;99.90;;;;;;5070844;28;20148;-68
2022/10/15 03:33:20;;;;;;;62.33;35.20;;;12.20;99.90;;;;;;5069296;28;20040;-68
2022/10/15 03:35:46;;;;;;;55.83;31.42;;;12.20;99.90;;;;;;5071260;28;20139;-68
2022/10/15 03:38:11;;;;;;;53.45;33.42;;;12.20;99.90;;;;;;5070882;28;20083;-68
2022/10/15 03:40:37;;;;;;;52.67;30.35;;;12.20;99.90;;;;;;5088749;28;20047;-68
2022/10/15 03:43:03;;;;;;;58.40;32.20;;;12.20;99.90;;;;;;5074362;28;20119;-68
2022/10/15 03:45:28;;;;;;;55.45;33.63;;;12.10;99.90;;;;;;5086192;28;20048;-68
2022/10/15 03:47:54;;;;;;;51.10;30.60;;;12.10;99.90;;;;;;5087341;28;20036;-68
2022/10/15 03:50:20;;;;;;;51.55;31.33;;;12.10;99.90;;;;;;5072599;28;20072;-68
2022/10/15 03:52:46;;;;;;;53.80;31.88;;;12.10;99.90;;;;;;5072511;28;20056;-68
2022/10/15 03:55:11;;;;;;;54.00;32.65;;;12.20;99.90;;;;;;5071135;28;20059;-68
2022/10/15 03:57:38;;;;;;;59.00;32.92;;;12.20;99.90;;;;;;5052341;28;20052;-68
2022/10/15 04:00:06;;;;;;;51.15;32.28;;;12.20;99.90;;;;;;5067239;28;20103;-68
2022/10/15 04:02:32;;;;;;;60.70;33.72;;;12.20;99.90;;;;;;5069388;28;20078;-68
2022/10/15 04:04:58;;;;;;;55.92;32.65;;;12.10;99.90;;;;;;5067845;28;20104;-68
2022/10/15 04:07:24;;;;;;;60.13;32.70;;;12.20;99.90;;;;;;5066934;28;20056;-68
2022/10/15 04:09:50;;;;;;;51.90;30.20;;;12.10;99.90;;;;;;5062074;28;20046;-66
2022/10/15 04:12:16;;;;;;;58.13;31.88;;;12.10;99.90;;;;;;5051117;28;20106;-68
2022/10/15 04:14:42;;;;;;;56.30;32.47;;;12.10;99.90;;;;;;5049247;28;20049;-68
2022/10/15 04:17:08;;;;;;;58.00;31.90;;;12.20;99.90;;;;;;5052096;28;20072;-68
2022/10/15 04:19:34;;;;;;;56.17;32.35;;;12.10;99.90;;;;;;5051340;28;20057;-68
2022/10/15 04:21:59;;;;;;;53.92;32.63;;;12.10;99.90;;;;;;5032692;28;20038;-68
2022/10/15 04:24:25;;;;;;;56.83;32.58;;;12.10;99.90;;;;;;5049085;28;20056;-68
2022/10/15 04:26:51;;;;;;;56.55;34.33;;;12.10;99.90;;;;;;5030341;28;20414;-68
2022/10/15 04:29:17;;;;;;;56.45;34.65;;;12.10;99.90;;;;;;5034923;28;20041;-68
2022/10/15 04:31:43;;;;;;;57.53;34.25;;;12.10;99.90;;;;;;5050062;28;20041;-68
2022/10/15 04:34:09;;;;;;;59.88;34.65;;;12.00;99.90;;;;;;5031495;28;20046;-68
2022/10/15 04:36:35;;;;;;;58.58;35.50;;;12.00;99.90;;;;;;5034105;28;20053;-68
2022/10/15 04:39:01;;;;;;;59.83;34.25;;;12.10;99.90;;;;;;5033197;28;20099;-68
2022/10/15 04:41:27;;;;;;;61.90;35.78;;;12.00;99.90;;;;;;5042991;28;20123;-68
2022/10/15 04:43:53;;;;;;;59.72;34.60;;;12.10;99.90;;;;;;5034396;28;20083;-68
2022/10/15 04:46:21;;;;;;;64.05;37.38;;;12.10;99.90;;;;;;5033142;28;20053;-68
2022/10/15 04:48:47;;;;;;;58.03;33.92;;;12.10;99.90;;;;;;5031645;28;20050;-68
2022/10/15 04:51:15;;;;;;;57.30;33.65;;;12.10;99.90;;;;;;5043291;28;20041;-68
2022/10/15 04:53:41;;;;;;;60.03;34.97;;;12.10;99.90;;;;;;5047911;28;20447;-68
2022/10/15 04:56:11;;;;;;;60.30;35.08;;;12.00;99.90;;;;;;5041909;28;20043;-68
2022/10/15 04:58:37;;;;;;;59.08;36.47;;;11.90;99.90;;;;;;5048412;28;20396;-68
2022/10/15 05:01:05;;;;;;;58.28;33.90;;;12.00;99.90;;;;;;5055365;28;20061;-68
2022/10/15 05:03:33;;;;;;;60.80;35.03;;;11.90;99.90;;;;;;5069853;28;20045;-68
2022/10/15 05:06:01;;;;;;;57.45;34.42;;;11.90;99.90;;;;;;5049246;28;20041;-68
2022/10/15 05:08:28;;;;;;;61.08;35.70;;;11.90;99.90;;;;;;5048635;28;20374;-68
2022/10/15 05:10:53;;;;;;;61.55;35.63;;;11.80;99.90;;;;;;5048403;28;20060;-68
2022/10/15 05:13:19;;;;;;;61.22;35.25;;;11.90;99.90;;;;;;5049782;28;20397;-68
2022/10/15 05:15:45;;;;;;;56.03;33.33;;;11.90;99.90;;;;;;5049522;28;20118;-68
2022/10/15 05:18:11;;;;;;;60.45;36.67;;;11.80;99.90;;;;;;5055316;28;20052;-68
2022/10/15 05:20:37;;;;;;;59.55;35.85;;;11.70;99.90;;;;;;5077470;28;20052;-68
2022/10/15 05:23:03;;;;;;;60.85;34.80;;;11.80;99.90;;;;;;5061460;28;20037;-68
2022/10/15 05:25:29;;;;;;;62.80;35.95;;;11.80;99.90;;;;;;5030446;28;20128;-68
2022/10/15 05:27:54;;;;;;;65.57;36.55;;;11.70;99.90;;;;;;5077092;28;20044;-68
2022/10/15 05:30:20;;;;;;;66.18;36.72;;;11.70;99.90;;;;;;5064572;28;20037;-68
2022/10/15 05:32:50;;;;;;;63.17;37.60;;;11.80;99.90;;;;;;5066972;28;20037;-68
2022/10/15 05:35:16;;;;;;;67.10;39.00;;;11.70;99.90;;;;;;5067902;28;20129;-68
2022/10/15 05:37:42;;;;;;;61.78;37.88;;;11.80;99.90;;;;;;5049990;28;20056;-68
2022/10/15 05:40:08;;;;;;;68.47;37.65;;;11.80;99.90;;;;;;5064071;28;20041;-68
2022/10/15 05:42:33;;;;;;;75.68;40.55;;;11.90;99.90;;;;;;5062029;28;20052;-68
2022/10/15 05:44:59;;;;;;;73.25;39.85;;;11.90;99.90;;;;;;5044923;28;20400;-68
2022/10/15 05:47:25;;;;;;;64.95;38.00;;;11.90;99.90;;;;;;5070551;28;20126;-68
2022/10/15 05:49:50;;;;;;;72.65;40.80;;;11.80;99.90;;;;;;5052095;28;20133;-68
2022/10/15 05:52:16;;;;;;;73.03;41.20;;;11.90;99.90;;;;;;5030334;28;20048;-68
2022/10/15 05:54:42;;;;;;;74.00;39.35;;;11.90;99.90;;;;;;5050237;28;20037;-68
2022/10/15 05:57:07;;;;;;;69.57;39.70;;;11.80;99.90;;;;;;5066332;28;20048;-68
2022/10/15 05:59:33;;;;;;;72.20;41.17;;;11.90;99.90;;;;;;5068309;28;20528;-68
2022/10/15 06:01:59;;;;;;;72.93;39.85;;;11.90;99.90;;;;;;5067069;28;20090;-68
2022/10/15 06:04:24;;;;;;;69.05;40.22;;;12.00;99.90;;;;;;5049353;28;20049;-68
2022/10/15 06:06:50;;;;;;;73.05;38.78;;;12.00;99.90;;;;;;5064973;28;20037;-68
2022/10/15 06:09:16;;;;;;;70.70;40.78;;;12.00;99.90;;;;;;5049179;28;20049;-68
2022/10/15 06:11:41;;;;;;;70.13;39.88;;;12.00;99.90;;;;;;5068255;28;20048;-68
2022/10/15 06:14:07;;;;;;;71.68;39.22;;;12.00;99.90;;;;;;5066602;28;20112;-68
2022/10/15 06:16:33;;;;;;;69.38;41.05;;;12.10;99.90;;;;;;5064143;28;20041;-68
2022/10/15 06:18:58;;;;;;;70.18;41.47;;;12.00;99.90;;;;;;5066878;28;20064;-68
2022/10/15 06:21:24;;;;;;;71.03;42.25;;;11.90;99.90;;;;;;5065452;28;20487;-68
2022/10/15 06:23:50;;;;;;;71.65;40.63;;;12.00;99.90;;;;;;5066990;28;20081;-68
2022/10/15 06:26:15;;;;;;;67.43;37.75;;;12.00;99.90;;;;;;5065635;28;20059;-69
2022/10/15 06:28:41;;;;;;;70.43;39.70;;;12.10;99.90;;;;;;5065170;28;20094;-68
2022/10/15 06:31:07;;;;;;;65.07;38.55;;;12.00;99.90;;;;;;5067455;28;20045;-69
2022/10/15 06:33:34;;;;;;;64.30;39.80;;;12.00;99.90;;;;;;5065438;28;20080;-69
2022/10/15 06:36:05;;;;;;;66.70;36.00;;;12.10;99.90;;;;;;5048767;28;20049;-69
2022/10/15 06:38:31;;;;;;;66.43;38.17;;;12.10;99.90;;;;;;5063283;28;20047;-68
2022/10/15 06:40:56;;;;;;;63.97;37.75;;;12.10;99.90;;;;;;5050527;28;20048;-68
2022/10/15 06:43:22;;;;;;;66.32;39.05;;;12.20;99.90;;;;;;5066547;28;20041;-68
2022/10/15 06:45:48;;;;;;;71.50;39.97;;;12.20;99.90;;;;;;5063905;28;20064;-68
2022/10/15 06:48:13;;;;;;;72.03;38.63;;;12.20;99.90;;;;;;5046004;28;20084;-68
2022/10/15 06:50:40;;;;;;;73.35;41.03;;;12.20;99.90;;;;;;5061998;28;20049;-68
2022/10/15 06:53:06;;;;;;;70.95;41.28;;;12.20;99.90;;;;;;5030442;28;20049;-69
2022/10/15 06:55:32;;;;;;;69.53;40.25;;;12.20;99.90;;;;;;5062281;28;20044;-68
2022/10/15 06:57:58;;;;;;;64.72;39.10;;;12.20;99.90;;;;;;5046756;28;20059;-68
2022/10/15 07:00:24;;;;;;;66.95;38.83;;;12.20;99.90;;;;;;5046934;28;20104;-68
2022/10/15 07:02:50;;;;;;;64.80;37.20;;;12.20;99.90;;;;;;5046498;28;20053;-68
2022/10/15 07:05:17;;;;;;;66.25;38.35;;;12.30;99.90;;;;;;5065443;28;20033;-68
2022/10/15 07:07:49;;;;;;;70.15;37.67;;;12.30;99.90;;;;;;5048949;28;20041;-68
2022/10/15 07:10:15;;;;;;;62.53;37.88;;;12.30;99.90;;;;;;5046866;28;20045;-68
2022/10/15 07:12:41;;;;;;;65.60;38.03;;;12.30;99.90;;;;;;5066471;28;20048;-68
2022/10/15 07:15:07;;;;;;;70.07;40.92;;;12.30;99.90;;;;;;5068262;28;20032;-68
2022/10/15 07:17:34;;;;;;;65.15;36.47;;;12.40;99.90;;;;;;5053446;28;20056;-69
2022/10/15 07:19:59;;;;;;;64.45;37.08;;;12.30;99.90;;;;;;5051977;28;20049;-68
2022/10/15 07:22:25;;;;;;;62.00;37.45;;;12.40;99.90;;;;;;5051120;28;20053;-68
2022/10/15 07:24:51;;;;;;;67.63;39.20;;;12.30;99.90;;;;;;5050267;28;20095;-68
2022/10/15 07:27:17;;;;;;;67.15;38.80;;;12.40;99.90;;;;;;5068893;28;20516;-68
2022/10/15 07:29:42;;;;;;;66.95;36.92;;;12.50;99.90;;;;;;5070609;28;20048;-66
2022/10/15 07:32:08;;;;;;;65.40;37.70;;;12.40;99.90;;;;;;5051097;28;20547;-66
2022/10/15 07:34:34;;;;;;;62.50;36.92;;;12.50;99.90;;;;;;5052745;28;20065;-63
2022/10/15 07:36:59;;;;;;;67.50;37.00;;;12.50;99.90;;;;;;5054748;28;20044;-64
2022/10/15 07:39:25;;;;;;;61.97;37.42;;;12.50;99.90;;;;;;5051738;28;20063;-64
2022/10/15 07:41:51;;;;;;;63.17;35.47;;;12.50;99.90;;;;;;5067199;28;20072;-63
2022/10/15 07:44:16;;;;;;;63.15;37.60;;;12.60;99.90;;;;;;5064213;28;20044;-64
2022/10/15 07:46:42;;;;;;;60.80;36.20;;;12.70;99.90;;;;;;5052663;28;20045;-64
2022/10/15 07:49:09;;;;;;;63.50;38.65;;;12.60;99.90;;;;;;5050993;28;20102;-64
2022/10/15 07:51:34;;;;;;;59.33;35.72;;;12.70;99.90;;;;;;5057166;28;20376;-64
2022/10/15 07:54:00;;;;;;;59.05;35.85;;;12.60;99.90;;;;;;5068594;28;20104;-64
2022/10/15 07:56:26;;;;;;;62.00;37.70;;;12.70;99.90;;;;;;5048689;28;20148;-65
2022/10/15 07:58:51;;;;;;;58.60;36.38;;;12.60;99.90;;;;;;5071800;28;20087;-63
2022/10/15 08:01:19;;;;;;;62.10;35.90;;;12.70;99.90;;;;;;5034072;28;20072;-63
2022/10/15 08:03:46;;;;;;;61.85;37.05;;;12.90;99.90;;;;;;5036833;28;20043;-64
2022/10/15 08:06:12;;;;;;;60.08;37.92;;;12.90;99.90;;;;;;5043817;28;20081;-64
2022/10/15 08:08:37;;;;;;;65.90;37.90;;;12.90;99.90;;;;;;5050140;28;20059;-64
2022/10/15 08:11:08;;;;;;;64.28;38.00;;;13.00;99.90;;;;;;5033282;28;20126;-64
2022/10/15 08:13:33;;;;;;;63.95;38.67;;;13.00;99.90;;;;;;5056519;28;20106;-64
2022/10/15 08:15:59;;;;;;;59.35;37.72;;;13.00;99.90;;;;;;5051006;28;20041;-64
2022/10/15 08:18:25;;;;;;;60.38;37.72;;;13.00;99.90;;;;;;5040590;28;20052;-64
2022/10/15 08:20:51;;;;;;;59.45;37.15;;;13.10;99.90;;;;;;5049564;28;20136;-63
2022/10/15 08:23:17;;;;;;;60.58;37.70;;;13.10;99.90;;;;;;5041268;28;20045;-64
2022/10/15 08:25:43;;;;;;;59.50;35.85;;;13.10;99.90;;;;;;5036005;28;20057;-64
2022/10/15 08:28:09;;;;;;;62.03;38.20;;;13.30;99.90;;;;;;5048339;28;20482;-65
2022/10/15 08:30:36;;;;;;;57.33;38.92;;;13.20;99.90;;;;;;5033766;28;20064;-65
2022/10/15 08:33:01;;;;;;;53.92;37.53;;;13.30;99.90;;;;;;5032251;28;20053;-65
2022/10/15 08:35:27;;;;;;;60.63;38.72;;;13.40;99.90;;;;;;5067771;28;20532;-65
2022/10/15 08:37:53;;;;;;;57.25;36.25;;;13.30;99.90;;;;;;5069788;28;20040;-65
2022/10/15 08:40:21;;;;;;;61.13;37.70;;;13.30;99.90;;;;;;5046945;28;20045;-65
2022/10/15 08:42:49;;;;;;;56.00;37.35;;;13.40;99.90;;;;;;5054940;28;20044;-65
2022/10/15 08:45:22;;;;;;;57.42;36.90;;;13.20;99.90;;;;;;5066412;28;20076;-66
2022/10/15 08:47:57;;;;;;;61.83;38.90;;;13.30;99.90;;;;;;5048486;28;20104;-65
2022/10/15 08:50:53;;;;;;;59.00;38.53;;;13.30;99.90;;;;;;5049579;28;20052;-65
2022/10/15 08:53:21;;;;;;;59.05;39.63;;;13.40;99.90;;;;;;5062269;28;20056;-65
2022/10/15 08:55:50;;;;;;;57.30;38.33;;;13.40;99.90;;;;;;5066784;28;20049;-65
2022/10/15 08:58:41;;;;;;;57.97;38.58;;;13.40;99.90;;;;;;5046750;28;20067;-63
2022/10/15 09:01:21;;;;;;;62.97;40.22;;;13.50;99.90;;;;;;5054882;28;20060;-64
2022/10/15 09:03:56;;;;;;;57.10;39.03;;;13.50;99.90;;;;;;5055489;28;20561;-63
2022/10/15 09:06:38;;;;;;;56.30;39.70;;;13.60;99.90;;;;;;5059525;28;20053;-63
2022/10/15 09:09:29;;;;;;;56.60;39.45;;;13.70;99.90;;;;;;5045125;28;20049;-63
2022/10/15 09:11:55;;;;;;;58.28;38.63;;;13.80;99.90;;;;;;5037300;28;20087;-63
2022/10/15 09:14:26;;;;;;;59.42;40.22;;;13.90;99.90;;;;;;5045202;28;20037;-63
2022/10/15 09:16:52;;;;;;;58.83;38.67;;;14.00;99.90;;;;;;5065574;28;20104;-64
2022/10/15 09:19:23;;;;;;;58.95;39.95;;;14.00;99.90;;;;;;5056498;28;20070;-63
2022/10/15 09:21:51;;;;;;;53.83;36.67;;;14.20;99.90;;;;;;5045487;28;20087;-63
2022/10/15 09:24:26;;;;;;;55.38;38.17;;;14.20;99.90;;;;;;5030671;28;20038;-64
2022/10/15 09:27:11;;;;;;;55.17;37.92;;;14.30;99.90;;;;;;5049195;28;20106;-63
2022/10/15 09:29:57;;;;;;;48.70;33.40;;;14.30;99.90;;;;;;5056840;28;20053;-64
2022/10/15 09:32:30;;;;;;;47.22;33.20;;;14.20;99.90;;;;;;5046759;28;20075;-64
2022/10/15 09:35:14;;;;;;;48.78;31.15;;;14.20;99.90;;;;;;5046949;28;20053;-64
2022/10/15 09:38:05;;;;;;;49.40;33.28;;;14.30;99.90;;;;;;5055825;28;20044;-63
2022/10/15 09:40:56;;;;;;;49.05;32.28;;;14.20;99.90;;;;;;5036406;28;20491;-63
2022/10/15 09:43:29;;;;;;;56.13;36.45;;;14.10;99.90;;;;;;5066261;28;20047;-64
2022/10/15 09:45:56;;;;;;;60.53;35.72;;;13.90;99.90;;;;;;5065995;28;20099;-63
2022/10/15 09:48:24;;;;;;;60.50;34.50;;;13.80;99.90;;;;;;5044380;28;20049;-64
2022/10/15 09:50:59;;;;;;;58.67;34.97;;;13.90;99.90;;;;;;5048612;28;20048;-64
2022/10/15 09:53:44;;;;;;;56.10;31.88;;;13.80;99.90;;;;;;5052129;28;20052;-63
2022/10/15 09:56:23;;;;;;;66.47;35.60;;;13.70;99.90;;;;;;5028941;28;20048;-64
2022/10/15 09:58:56;;;;;;;61.13;33.67;;;13.70;99.90;;;;;;5046687;28;20056;-63
2022/10/15 10:01:28;;;;;;;58.38;31.85;;;13.70;99.90;;;;;;5043227;28;20050;-63
2022/10/15 10:04:12;;;;;;;57.72;32.20;;;13.60;99.90;;;;;;5045621;28;20099;-64
2022/10/15 10:06:49;;;;;;;56.22;32.50;;;13.60;99.90;;;;;;5072552;28;20044;-64
2022/10/15 10:09:24;;;;;;;52.83;28.80;;;13.50;99.90;;;;;;5051545;28;20097;-63
2022/10/15 10:11:57;;;;;;;52.58;29.92;;;13.60;99.90;;;;;;5065482;28;20045;-63
2022/10/15 10:14:34;;;;;;;51.00;30.27;;;13.50;99.90;;;;;;5064838;28;20116;-63
2022/10/15 10:17:17;;;;;;;50.22;28.73;;;13.60;99.90;;;;;;5067409;28;20041;-63
2022/10/15 10:19:45;;;;;;;49.20;29.02;;;13.60;99.90;;;;;;5048274;28;20064;-64
2022/10/15 10:22:13;;;;;;;50.55;28.63;;;13.50;99.90;;;;;;5045217;28;20049;-63
2022/10/15 10:24:38;;;;;;;51.80;28.73;;;13.70;99.90;;;;;;5044963;28;20045;-64
2022/10/15 10:27:20;;;;;;;50.65;29.00;;;13.70;99.90;;;;;;5042978;28;20084;-63
2022/10/15 10:29:52;;;;;;;50.17;28.05;;;13.70;99.90;;;;;;5063406;28;20056;-63
2022/10/15 10:32:22;;;;;;;45.58;27.20;;;13.80;99.90;;;;;;5067470;28;20056;-63
2022/10/15 10:34:48;;;;;;;45.50;26.33;;;13.70;99.90;;;;;;5063326;28;20037;-63
2022/10/15 10:37:14;;;;;;;46.97;27.65;;;13.70;99.90;;;;;;5046498;28;20085;-63
2022/10/15 10:39:43;;;;;;;43.13;26.70;;;13.80;99.90;;;;;;5045511;28;20057;-63
2022/10/15 10:42:21;;;;;;;43.63;26.00;;;13.90;99.90;;;;;;5061102;28;21000;-63
2022/10/15 10:44:47;;;;;;;38.83;24.25;;;14.00;99.90;;;;;;5063679;28;20048;-63
2022/10/15 10:47:24;;;;;;;42.28;24.10;;;14.20;99.90;;;;;;5069859;28;20037;-63
2022/10/15 10:49:55;;;;;;;35.88;23.33;;;14.40;99.90;;;;;;5057357;28;20045;-63
2022/10/15 10:52:30;;;;;;;32.55;21.25;;;14.60;99.90;;;;;;5048938;28;20043;-63
2022/10/15 10:55:01;;;;;;;33.75;21.35;;;14.70;99.90;;;;;;5074358;28;20042;-63
2022/10/15 10:57:46;;;;;;;35.20;22.92;;;14.90;99.90;;;;;;5043368;28;20100;-63
2022/10/15 11:00:23;;;;;;;33.08;22.80;;;14.90;99.90;;;;;;5047693;28;20517;-63
2022/10/15 11:02:50;;;;;;;35.35;22.67;;;15.00;99.90;;;;;;5054931;28;20055;-63
2022/10/15 11:05:25;;;;;;;34.22;22.30;;;15.10;99.90;;;;;;5072722;28;20044;-63
2022/10/15 11:08:05;;;;;;;31.52;22.02;;;15.20;99.90;;;;;;5072349;28;20069;-63
2022/10/15 11:10:58;;;;;;;32.13;21.63;;;15.20;99.90;;;;;;5060125;28;20049;-63
2022/10/15 11:13:33;;;;;;;30.90;21.35;;;15.20;99.90;;;;;;5053060;28;20948;-63
2022/10/15 11:16:02;;;;;;;33.40;22.67;;;15.10;99.90;;;;;;5049412;28;20083;-63
2022/10/15 11:18:47;;;;;;;31.27;21.98;;;15.10;99.90;;;;;;5054312;28;20049;-63
2022/10/15 11:21:25;;;;;;;32.30;21.48;;;15.20;99.90;;;;;;5064194;28;20414;-63
2022/10/15 11:24:13;;;;;;;30.55;21.83;;;15.20;99.90;;;;;;5069444;28;20108;-63
2022/10/15 11:27:03;;;;;;;31.42;21.00;;;15.20;99.90;;;;;;5089993;28;20044;-64
2022/10/15 11:29:34;;;;;;;32.13;21.17;;;15.30;99.90;;;;;;5059727;28;20089;-63
2022/10/15 11:32:33;;;;;;;28.08;20.38;;;15.20;99.90;;;;;;5087226;28;20091;-63
2022/10/15 11:35:27;;;;;;;28.65;19.77;;;15.30;99.90;;;;;;5073929;28;20052;-63
2022/10/15 11:38:14;;;;;;;24.67;18.33;;;15.30;99.90;;;;;;5089245;28;20044;-63
2022/10/15 11:41:01;;;;;;;27.70;18.23;;;15.20;99.90;;;;;;5087556;28;20045;-63
2022/10/15 11:43:45;;;;;;;23.35;17.83;;;15.30;99.90;;;;;;5068979;28;20492;-63
2022/10/15 11:46:34;;;;;;;23.38;17.30;;;15.30;99.90;;;;;;5089788;28;20066;-63
2022/10/15 11:49:21;;;;;;;22.23;16.95;;;15.40;99.90;;;;;;5046351;28;20044;-64
2022/10/15 11:52:25;;;;;;;22.20;15.85;;;15.40;99.90;;;;;;5086070;28;20067;-64
2022/10/15 11:55:13;;;;;;;22.23;16.70;;;15.40;99.90;;;;;;5085114;28;20048;-63
2022/10/15 11:57:41;;;;;;;22.10;17.05;;;15.50;99.90;;;;;;5047159;28;20056;-62
2022/10/15 12:00:28;;;;;;;23.00;17.80;;;15.50;99.90;;;;;;5057716;28;20495;-63
2022/10/15 12:02:55;;;;;;;25.85;16.80;;;15.50;99.90;;;;;;5062520;28;20575;-63
2022/10/15 12:05:40;;;;;;;23.13;17.48;;;15.50;99.90;;;;;;5062060;28;20052;-63
2022/10/15 12:08:10;;;;;;;22.73;17.33;;;15.50;99.90;;;;;;5058869;28;20044;-63
2022/10/15 12:10:54;;;;;;;23.08;17.40;;;15.40;99.90;;;;;;5065329;28;20061;-62
2022/10/15 12:13:38;;;;;;;21.38;15.98;;;15.60;99.90;;;;;;5062477;28;20098;-62
2022/10/15 12:16:18;;;;;;;20.23;15.82;;;15.80;99.90;;;;;;5032986;28;20053;-62
2022/10/15 12:18:58;;;;;;;20.98;15.45;;;15.70;99.90;;;;;;5066729;28;20505;-63
2022/10/15 12:21:42;;;;;;;25.50;17.23;;;15.70;99.90;;;;;;5048175;28;20049;-62
2022/10/15 12:24:35;;;;;;;22.33;15.45;;;15.70;99.90;;;;;;5035494;28;20479;-63
2022/10/15 12:27:19;;;;;;;21.95;14.85;;;15.70;99.90;;;;;;5041881;28;20372;-66
2022/10/15 12:30:10;;;;;;;20.98;14.70;;;15.70;99.90;;;;;;5042417;28;20124;-63
2022/10/15 12:32:41;;;;;;;19.73;14.05;;;15.70;99.90;;;;;;5038487;28;20101;-64
2022/10/15 12:35:20;;;;;;;20.13;14.32;;;15.80;99.90;;;;;;5031761;28;20116;-63
2022/10/15 12:37:48;;;;;;;20.63;15.43;;;15.90;99.90;;;;;;5040099;28;20049;-64
2022/10/15 12:40:22;;;;;;;20.90;14.15;;;15.80;99.90;;;;;;5049262;28;20083;-67
2022/10/15 12:42:55;;;;;;;20.40;15.82;;;15.90;99.90;;;;;;5040960;28;20049;-68
2022/10/15 12:45:43;;;;;;;21.90;15.40;;;15.80;99.90;;;;;;5034642;28;20094;-63